Time,TemperatureF,DewpointF,PressureIn,WindDirection,WindDirectionDegrees,WindSpeedMPH,WindSpeedGustMPH,Humidity,HourlyPrecipIn,Conditions,Clouds,dailyrainin,SoftwareType,DateUTC
2013-07-17 00:04:00,58.3,54.5,30.30,North,0,0.0,0.0,87,0.00,,,0.00,WUHU216HW,2013-07-17 07:04:00,
2013-07-17 00:09:00,58.3,54.5,30.30,North,0,0.0,0.0,87,0.00,,,0.00,WUHU216HW,2013-07-17 07:09:00,
2013-07-17 00:14:00,58.1,54.3,30.30,North,0,0.0,0.0,87,0.00,,,0.00,WUHU216HW,2013-07-17 07:14:00,
2013-07-17 00:19:00,58.0,54.1,30.30,North,0,0.0,0.0,87,0.00,,,0.00,WUHU216HW,2013-07-17 07:19:00,
2013-07-17 00:24:00,57.8,53.9,30.30,North,0,0.0,0.0,87,0.00,,,0.00,WUHU216HW,2013-07-17 07:24:00,
2013-07-17 00:29:00,57.6,53.7,30.30,North,0,0.0,0.0,87,0.00,,,0.00,WUHU216HW,2013-07-17 07:29:00,
2013-07-17 00:34:00,57.2,53.1,30.30,North,0,0.0,0.0,86,0.00,,,0.00,WUHU216HW,2013-07-17 07:34:00,
2013-07-17 00:39:00,57.2,53.1,30.30,North,0,0.0,0.0,86,0.00,,,0.00,WUHU216HW,2013-07-17 07:39:00,
2013-07-17 00:44:00,57.1,52.9,30.30,North,0,0.0,0.0,86,0.00,,,0.00,WUHU216HW,2013-07-17 07:44:00,
2013-07-17 00:49:00,56.9,52.8,30.30,North,0,0.0,0.0,86,0.00,,,0.00,WUHU216HW,2013-07-17 07:49:00,
2013-07-17 00:54:00,56.7,52.8,30.30,North,0,0.0,0.0,87,0.00,,,0.00,WUHU216HW,2013-07-17 07:54:00,
2013-07-17 00:59:00,56.5,52.7,30.30,North,0,0.0,0.0,87,0.00,,,0.00,WUHU216HW,2013-07-17 07:59:00,
2013-07-17 01:04:00,56.5,52.7,30.30,North,0,0.0,0.0,87,0.00,,,0.00,WUHU216HW,2013-07-17 08:04:00,
2013-07-17 01:09:00,56.3,52.5,30.30,North,0,0.0,0.0,87,0.00,,,0.00,WUHU216HW,2013-07-17 08:09:00,
2013-07-17 01:14:00,56.3,52.5,30.30,North,0,0.0,0.0,87,0.00,,,0.00,WUHU216HW,2013-07-17 08:14:00,
2013-07-17 01:19:00,56.3,52.5,30.30,North,0,0.0,0.0,87,0.00,,,0.00,WUHU216HW,2013-07-17 08:19:00,
2013-07-17 01:24:00,56.2,52.3,30.30,North,0,0.0,0.0,87,0.00,,,0.00,WUHU216HW,2013-07-17 08:24:00,
2013-07-17 01:29:00,56.2,52.3,30.30,North,0,0.0,0.0,87,0.00,,,0.00,WUHU216HW,2013-07-17 08:29:00,
2013-07-17 01:34:00,56.0,52.1,30.30,North,0,0.0,0.0,87,0.00,,,0.00,WUHU216HW,2013-07-17 08:34:00,
2013-07-17 01:39:00,55.8,51.9,30.30,North,0,0.0,0.0,87,0.00,,,0.00,WUHU216HW,2013-07-17 08:39:00,
2013-07-17 01:44:00,55.8,52.3,30.29,North,0,0.0,0.0,88,0.00,,,0.00,WUHU216HW,2013-07-17 08:44:00,
2013-07-17 01:49:00,55.6,52.1,30.30,North,0,0.0,0.0,88,0.00,,,0.00,WUHU216HW,2013-07-17 08:49:00,
2013-07-17 01:54:00,55.6,52.1,30.30,North,0,0.0,0.0,88,0.00,,,0.00,WUHU216HW,2013-07-17 08:54:00,
2013-07-17 01:59:00,55.4,51.9,30.30,North,0,0.0,0.0,88,0.00,,,0.00,WUHU216HW,2013-07-17 08:59:00,
2013-07-17 02:04:00,55.4,51.9,30.30,North,0,0.0,0.0,88,0.00,,,0.00,WUHU216HW,2013-07-17 09:04:00,
2013-07-17 02:09:00,55.3,51.8,30.30,North,0,0.0,0.0,88,0.00,,,0.00,WUHU216HW,2013-07-17 09:09:00,
2013-07-17 02:14:00,55.3,51.8,30.30,North,0,0.0,0.0,88,0.00,,,0.00,WUHU216HW,2013-07-17 09:14:00,
2013-07-17 02:19:00,55.1,51.6,30.30,North,0,0.0,0.0,88,0.00,,,0.00,WUHU216HW,2013-07-17 09:19:00,
2013-07-17 02:24:00,55.1,51.6,30.30,North,0,0.0,0.0,88,0.00,,,0.00,WUHU216HW,2013-07-17 09:24:00,
2013-07-17 02:29:00,55.1,51.8,30.29,North,0,0.0,0.0,89,0.00,,,0.00,WUHU216HW,2013-07-17 09:29:00,
2013-07-17 02:34:00,55.3,52.0,30.29,North,0,0.0,0.0,89,0.00,,,0.00,WUHU216HW,2013-07-17 09:34:00,
2013-07-17 02:39:00,55.4,52.2,30.29,North,0,0.0,0.0,89,0.00,,,0.00,WUHU216HW,2013-07-17 09:39:00,
2013-07-17 02:44:00,55.4,52.2,30.29,North,0,0.0,0.0,89,0.00,,,0.00,WUHU216HW,2013-07-17 09:44:00,
2013-07-17 02:49:00,55.4,51.9,30.29,North,0,0.0,0.0,88,0.00,,,0.00,WUHU216HW,2013-07-17 09:49:00,
2013-07-17 02:54:00,55.3,51.8,30.29,North,0,0.0,0.0,88,0.00,,,0.00,WUHU216HW,2013-07-17 09:54:00,
2013-07-17 02:59:00,55.1,51.6,30.29,North,0,0.0,0.0,88,0.00,,,0.00,WUHU216HW,2013-07-17 09:59:00,
2013-07-17 03:04:00,55.1,51.6,30.29,North,0,0.0,0.0,88,0.00,,,0.00,WUHU216HW,2013-07-17 10:04:00,
2013-07-17 03:09:00,55.1,51.8,30.29,North,0,0.0,0.0,89,0.00,,,0.00,WUHU216HW,2013-07-17 10:09:00,
2013-07-17 03:14:00,54.9,51.7,30.29,North,0,0.0,0.0,89,0.00,,,0.00,WUHU216HW,2013-07-17 10:14:00,
2013-07-17 03:19:00,54.9,51.7,30.29,North,0,0.0,0.0,89,0.00,,,0.00,WUHU216HW,2013-07-17 10:19:00,
2013-07-17 03:24:00,54.7,51.5,30.29,North,0,0.0,0.0,89,0.00,,,0.00,WUHU216HW,2013-07-17 10:24:00,
2013-07-17 03:29:00,54.7,51.5,30.29,North,0,0.0,0.0,89,0.00,,,0.00,WUHU216HW,2013-07-17 10:29:00,
2013-07-17 03:34:00,54.5,51.3,30.29,North,0,0.0,0.0,89,0.00,,,0.00,WUHU216HW,2013-07-17 10:34:00,
2013-07-17 03:39:00,54.4,51.2,30.29,North,0,0.0,0.0,89,0.00,,,0.00,WUHU216HW,2013-07-17 10:39:00,
2013-07-17 03:44:00,54.4,51.2,30.29,North,0,0.0,0.0,89,0.00,,,0.00,WUHU216HW,2013-07-17 10:44:00,
2013-07-17 03:49:00,54.5,51.3,30.29,North,0,0.0,0.0,89,0.00,,,0.00,WUHU216HW,2013-07-17 10:49:00,
2013-07-17 03:54:00,54.4,51.2,30.30,North,0,0.0,0.0,89,0.00,,,0.00,WUHU216HW,2013-07-17 10:54:00,
2013-07-17 03:59:00,54.4,51.2,30.30,North,0,0.0,0.0,89,0.00,,,0.00,WUHU216HW,2013-07-17 10:59:00,
2013-07-17 04:04:00,54.4,51.2,30.30,North,0,0.0,0.0,89,0.00,,,0.00,WUHU216HW,2013-07-17 11:04:00,
2013-07-17 04:09:00,54.0,50.5,30.30,North,0,0.0,0.0,88,0.00,,,0.00,WUHU216HW,2013-07-17 11:09:00,
2013-07-17 04:14:00,53.8,50.7,30.30,North,0,0.0,0.0,89,0.00,,,0.00,WUHU216HW,2013-07-17 11:14:00,
2013-07-17 04:19:00,53.6,50.5,30.30,North,0,0.0,0.0,89,0.00,,,0.00,WUHU216HW,2013-07-17 11:19:00,
2013-07-17 04:24:00,53.6,50.5,30.30,North,0,0.0,0.0,89,0.00,,,0.00,WUHU216HW,2013-07-17 11:24:00,
2013-07-17 04:29:00,53.6,50.5,30.30,North,0,0.0,0.0,89,0.00,,,0.00,WUHU216HW,2013-07-17 11:29:00,
2013-07-17 04:34:00,53.6,50.5,30.30,North,0,0.0,0.0,89,0.00,,,0.00,WUHU216HW,2013-07-17 11:34:00,
2013-07-17 04:39:00,53.6,50.5,30.30,North,0,0.0,0.0,89,0.00,,,0.00,WUHU216HW,2013-07-17 11:39:00,
2013-07-17 04:44:00,53.6,50.5,30.30,North,0,0.0,0.0,89,0.00,,,0.00,WUHU216HW,2013-07-17 11:44:00,
2013-07-17 04:49:00,53.6,50.5,30.30,North,0,0.0,0.0,89,0.00,,,0.00,WUHU216HW,2013-07-17 11:49:00,
2013-07-17 04:54:00,53.5,50.3,30.30,North,0,0.0,0.0,89,0.00,,,0.00,WUHU216HW,2013-07-17 11:54:00,
2013-07-17 04:59:00,53.3,50.1,30.30,North,0,0.0,0.0,89,0.00,,,0.00,WUHU216HW,2013-07-17 11:59:00,
2013-07-17 05:04:00,53.5,50.3,30.31,North,0,0.0,0.0,89,0.00,,,0.00,WUHU216HW,2013-07-17 12:04:00,
2013-07-17 05:09:00,53.3,50.1,30.31,North,0,0.0,0.0,89,0.00,,,0.00,WUHU216HW,2013-07-17 12:09:00,
2013-07-17 05:14:00,53.3,50.1,30.31,North,0,0.0,0.0,89,0.00,,,0.00,WUHU216HW,2013-07-17 12:14:00,
2013-07-17 05:19:00,53.3,50.1,30.31,North,0,0.0,0.0,89,0.00,,,0.00,WUHU216HW,2013-07-17 12:19:00,
2013-07-17 05:24:00,52.9,49.8,30.31,North,0,0.0,0.0,89,0.00,,,0.00,WUHU216HW,2013-07-17 12:24:00,
2013-07-17 05:29:00,52.9,49.8,30.31,North,0,0.0,0.0,89,0.00,,,0.00,WUHU216HW,2013-07-17 12:29:00,
2013-07-17 05:34:00,52.9,49.8,30.32,North,0,0.0,0.0,89,0.00,,,0.00,WUHU216HW,2013-07-17 12:34:00,
2013-07-17 05:39:00,52.9,49.8,30.32,North,0,0.0,0.0,89,0.00,,,0.00,WUHU216HW,2013-07-17 12:39:00,
2013-07-17 05:44:00,52.9,49.8,30.32,North,0,0.0,0.0,89,0.00,,,0.00,WUHU216HW,2013-07-17 12:44:00,
2013-07-17 05:49:00,52.9,49.8,30.32,North,0,0.0,0.0,89,0.00,,,0.00,WUHU216HW,2013-07-17 12:49:00,
2013-07-17 05:54:00,52.7,49.6,30.32,North,0,0.0,0.0,89,0.00,,,0.00,WUHU216HW,2013-07-17 12:54:00,
2013-07-17 05:59:00,52.7,49.6,30.32,North,0,0.0,0.0,89,0.00,,,0.00,WUHU216HW,2013-07-17 12:59:00,
2013-07-17 06:04:00,52.7,49.6,30.32,North,0,0.0,0.0,89,0.00,,,0.00,WUHU216HW,2013-07-17 13:04:00,
2013-07-17 06:09:00,52.7,49.6,30.32,North,0,0.0,0.0,89,0.00,,,0.00,WUHU216HW,2013-07-17 13:09:00,
2013-07-17 06:14:00,52.9,49.8,30.32,North,0,0.0,0.0,89,0.00,,,0.00,WUHU216HW,2013-07-17 13:14:00,
2013-07-17 06:19:00,53.1,50.0,30.33,North,0,0.0,0.0,89,0.00,,,0.00,WUHU216HW,2013-07-17 13:19:00,
2013-07-17 06:24:00,53.3,50.1,30.33,North,0,0.0,0.0,89,0.00,,,0.00,WUHU216HW,2013-07-17 13:24:00,
2013-07-17 06:29:00,53.6,50.5,30.33,North,0,0.0,0.0,89,0.00,,,0.00,WUHU216HW,2013-07-17 13:29:00,
2013-07-17 06:34:00,53.8,50.7,30.33,North,0,0.0,0.0,89,0.00,,,0.00,WUHU216HW,2013-07-17 13:34:00,
2013-07-17 06:39:00,54.0,50.9,30.33,North,0,0.0,0.0,89,0.00,,,0.00,WUHU216HW,2013-07-17 13:39:00,
2013-07-17 06:44:00,54.0,50.9,30.33,North,0,0.0,0.0,89,0.00,,,0.00,WUHU216HW,2013-07-17 13:44:00,
2013-07-17 06:49:00,54.4,51.5,30.33,North,0,0.0,0.0,90,0.00,,,0.00,WUHU216HW,2013-07-17 13:49:00,
2013-07-17 06:54:00,54.4,51.5,30.33,North,0,0.0,0.0,90,0.00,,,0.00,WUHU216HW,2013-07-17 13:54:00,
2013-07-17 06:59:00,54.7,51.8,30.33,North,0,0.0,0.0,90,0.00,,,0.00,WUHU216HW,2013-07-17 13:59:00,
2013-07-17 07:04:00,55.1,52.2,30.33,North,0,0.0,0.0,90,0.00,,,0.00,WUHU216HW,2013-07-17 14:04:00,
2013-07-17 07:09:00,55.6,52.7,30.33,North,0,0.0,0.0,90,0.00,,,0.00,WUHU216HW,2013-07-17 14:09:00,
2013-07-17 07:14:00,56.0,53.1,30.33,North,0,0.0,0.0,90,0.00,,,0.00,WUHU216HW,2013-07-17 14:14:00,
2013-07-17 07:19:00,56.5,53.6,30.34,North,0,0.0,0.0,90,0.00,,,0.00,WUHU216HW,2013-07-17 14:19:00,
2013-07-17 07:24:00,57.1,54.2,30.34,North,0,0.0,0.0,90,0.00,,,0.00,WUHU216HW,2013-07-17 14:24:00,
2013-07-17 07:29:00,57.6,54.7,30.34,North,0,0.0,0.0,90,0.00,,,0.00,WUHU216HW,2013-07-17 14:29:00,
2013-07-17 07:34:00,58.3,55.4,30.34,North,0,0.0,0.0,90,0.00,,,0.00,WUHU216HW,2013-07-17 14:34:00,
2013-07-17 07:39:00,59.4,56.5,30.34,North,0,0.0,0.0,90,0.00,,,0.00,WUHU216HW,2013-07-17 14:39:00,
2013-07-17 07:44:00,60.7,57.8,30.34,North,0,0.0,0.0,90,0.00,,,0.00,WUHU216HW,2013-07-17 14:44:00,
2013-07-17 07:49:00,62.3,58.4,30.34,North,0,0.0,0.0,87,0.00,,,0.00,WUHU216HW,2013-07-17 14:49:00,
2013-07-17 07:54:00,63.9,59.3,30.34,North,0,0.0,0.0,85,0.00,,,0.00,WUHU216HW,2013-07-17 14:54:00,
2013-07-17 07:59:00,65.5,60.6,30.34,North,0,0.0,0.0,84,0.00,,,0.00,WUHU216HW,2013-07-17 14:59:00,
2013-07-17 08:04:00,67.0,61.0,30.34,North,0,0.0,0.0,81,0.00,,,0.00,WUHU216HW,2013-07-17 15:04:00,
2013-07-17 08:09:00,68.2,61.1,30.34,North,0,0.0,0.0,78,0.00,,,0.00,WUHU216HW,2013-07-17 15:09:00,
2013-07-17 08:14:00,69.5,61.6,30.34,North,0,0.0,0.0,76,0.00,,,0.00,WUHU216HW,2013-07-17 15:14:00,
2013-07-17 08:19:00,70.6,61.5,30.34,North,0,0.0,0.0,73,0.00,,,0.00,WUHU216HW,2013-07-17 15:19:00,
2013-07-17 08:24:00,71.3,61.7,30.34,North,0,0.0,0.0,72,0.00,,,0.00,WUHU216HW,2013-07-17 15:24:00,
2013-07-17 08:29:00,72.2,62.3,30.34,North,0,0.0,0.0,71,0.00,,,0.00,WUHU216HW,2013-07-17 15:29:00,
2013-07-17 08:34:00,73.3,62.1,30.34,North,0,0.0,0.0,68,0.00,,,0.00,WUHU216HW,2013-07-17 15:34:00,
2013-07-17 08:39:00,73.8,62.2,30.35,North,0,0.0,0.0,67,0.00,,,0.00,WUHU216HW,2013-07-17 15:39:00,
2013-07-17 08:44:00,74.0,61.5,30.34,North,0,0.0,0.0,65,0.00,,,0.00,WUHU216HW,2013-07-17 15:44:00,
2013-07-17 08:49:00,74.7,62.1,30.34,North,0,0.0,0.0,65,0.00,,,0.00,WUHU216HW,2013-07-17 15:49:00,
2013-07-17 08:54:00,75.4,61.5,30.35,North,0,0.0,0.0,62,0.00,,,0.00,WUHU216HW,2013-07-17 15:54:00,
2013-07-17 08:59:00,76.3,61.9,30.35,North,0,0.0,0.0,61,0.00,,,0.00,WUHU216HW,2013-07-17 15:59:00,
2013-07-17 09:04:00,76.3,60.9,30.35,North,0,0.0,0.0,59,0.00,,,0.00,WUHU216HW,2013-07-17 16:04:00,
2013-07-17 09:09:00,76.3,60.9,30.35,North,0,0.0,0.0,59,0.00,,,0.00,WUHU216HW,2013-07-17 16:09:00,
2013-07-17 09:14:00,76.7,60.8,30.35,North,0,0.0,0.0,58,0.00,,,0.00,WUHU216HW,2013-07-17 16:14:00,
2013-07-17 09:19:00,77.0,59.6,30.35,North,0,0.0,0.0,55,0.00,,,0.00,WUHU216HW,2013-07-17 16:19:00,
2013-07-17 09:24:00,77.4,59.0,30.35,North,0,0.0,0.0,53,0.00,,,0.00,WUHU216HW,2013-07-17 16:24:00,
2013-07-17 09:29:00,77.4,58.4,30.34,North,0,0.0,0.0,52,0.00,,,0.00,WUHU216HW,2013-07-17 16:29:00,
2013-07-17 09:34:00,77.8,58.8,30.34,North,0,0.0,0.0,52,0.00,,,0.00,WUHU216HW,2013-07-17 16:34:00,
2013-07-17 09:39:00,77.9,58.4,30.34,North,0,0.0,0.0,51,0.00,,,0.00,WUHU216HW,2013-07-17 16:39:00,
2013-07-17 09:44:00,78.1,59.0,30.34,North,0,0.0,0.0,52,0.00,,,0.00,WUHU216HW,2013-07-17 16:44:00,
2013-07-17 09:49:00,78.5,58.3,30.34,North,0,0.0,0.0,50,0.00,,,0.00,WUHU216HW,2013-07-17 16:49:00,
2013-07-17 09:54:00,78.8,58.7,30.34,North,0,0.0,0.0,50,0.00,,,0.00,WUHU216HW,2013-07-17 16:54:00,
2013-07-17 09:59:00,79.0,59.4,30.34,North,0,0.0,0.0,51,0.00,,,0.00,WUHU216HW,2013-07-17 16:59:00,
2013-07-17 10:04:00,79.2,58.4,30.34,North,0,0.0,0.0,49,0.00,,,0.00,WUHU216HW,2013-07-17 17:04:00,
2013-07-17 10:09:00,79.6,58.2,30.34,North,0,0.0,0.0,48,0.00,,,0.00,WUHU216HW,2013-07-17 17:09:00,
2013-07-17 10:14:00,79.9,58.4,30.34,North,0,0.0,0.0,48,0.00,,,0.00,WUHU216HW,2013-07-17 17:14:00,
2013-07-17 10:19:00,80.3,58.1,30.34,North,0,0.0,0.0,47,0.00,,,0.00,WUHU216HW,2013-07-17 17:19:00,
2013-07-17 10:24:00,80.3,57.5,30.34,North,0,0.0,0.0,46,0.00,,,0.00,WUHU216HW,2013-07-17 17:24:00,
2013-07-17 10:29:00,79.9,57.8,30.34,North,0,0.0,0.0,47,0.00,,,0.00,WUHU216HW,2013-07-17 17:29:00,
2013-07-17 10:34:00,79.7,57.7,30.34,North,0,0.0,0.0,47,0.00,,,0.00,WUHU216HW,2013-07-17 17:34:00,
2013-07-17 10:39:00,79.6,58.2,30.34,North,0,0.0,0.0,48,0.00,,,0.00,WUHU216HW,2013-07-17 17:39:00,
2013-07-17 10:44:00,79.2,58.4,30.34,North,0,0.0,0.0,49,0.00,,,0.00,WUHU216HW,2013-07-17 17:44:00,
2013-07-17 10:49:00,78.8,57.4,30.34,North,0,0.0,0.0,48,0.00,,,0.00,WUHU216HW,2013-07-17 17:49:00,
2013-07-17 10:54:00,78.1,56.2,30.34,North,0,0.0,0.0,47,0.00,,,0.00,WUHU216HW,2013-07-17 17:54:00,
2013-07-17 10:59:00,77.6,57.0,30.34,North,0,0.0,0.0,49,0.00,,,0.00,WUHU216HW,2013-07-17 17:59:00,
2013-07-17 11:04:00,76.9,56.9,30.34,North,0,0.0,0.0,50,0.00,,,0.00,WUHU216HW,2013-07-17 18:04:00,
2013-07-17 11:09:00,76.0,56.6,30.34,North,0,0.0,0.0,51,0.00,,,0.00,WUHU216HW,2013-07-17 18:09:00,
2013-07-17 11:14:00,75.4,57.2,30.34,North,0,0.0,0.0,53,0.00,,,0.00,WUHU216HW,2013-07-17 18:14:00,
2013-07-17 11:19:00,75.1,57.8,30.34,North,0,0.0,0.0,55,0.00,,,0.00,WUHU216HW,2013-07-17 18:19:00,
2013-07-17 11:24:00,75.1,58.3,30.34,North,0,0.0,0.0,56,0.00,,,0.00,WUHU216HW,2013-07-17 18:24:00,
2013-07-17 11:29:00,74.9,60.1,30.34,North,0,0.0,0.0,60,0.01,,,0.01,WUHU216HW,2013-07-17 18:29:00,
2013-07-17 11:34:00,74.0,61.0,30.34,North,0,0.0,0.0,64,0.01,,,0.01,WUHU216HW,2013-07-17 18:34:00,
2013-07-17 11:39:00,72.5,60.5,30.34,North,0,0.0,0.0,66,0.01,,,0.01,WUHU216HW,2013-07-17 18:39:00,
2013-07-17 11:44:00,71.6,61.4,30.35,North,0,0.0,0.0,70,0.07,,,0.07,WUHU216HW,2013-07-17 18:44:00,
2013-07-17 11:49:00,69.5,59.2,30.34,North,0,0.0,0.0,70,0.24,,,0.24,WUHU216HW,2013-07-17 18:49:00,
2013-07-17 11:54:00,67.0,58.4,30.34,North,0,0.0,0.0,74,0.25,,,0.25,WUHU216HW,2013-07-17 18:54:00,
2013-07-17 11:59:00,66.1,58.6,30.34,North,0,0.0,0.0,77,0.25,,,0.25,WUHU216HW,2013-07-17 18:59:00,
2013-07-17 12:04:00,65.5,58.9,30.34,North,0,0.0,0.0,79,0.26,,,0.26,WUHU216HW,2013-07-17 19:04:00,
2013-07-17 12:09:00,65.0,58.7,30.34,North,0,0.0,0.0,80,0.38,,,0.38,WUHU216HW,2013-07-17 19:09:00,
2013-07-17 12:14:00,64.4,58.9,30.35,North,0,0.0,0.0,82,0.39,,,0.39,WUHU216HW,2013-07-17 19:14:00,
2013-07-17 12:19:00,64.3,58.7,30.34,North,0,0.0,0.0,82,0.39,,,0.39,WUHU216HW,2013-07-17 19:19:00,
2013-07-17 12:24:00,64.1,58.8,30.34,North,0,0.0,0.0,83,0.39,,,0.39,WUHU216HW,2013-07-17 19:24:00,
2013-07-17 12:29:00,63.9,58.6,30.34,North,0,0.0,0.0,83,0.38,,,0.39,WUHU216HW,2013-07-17 19:29:00,
2013-07-17 12:34:00,63.7,58.8,30.34,North,0,0.0,0.0,84,0.38,,,0.39,WUHU216HW,2013-07-17 19:34:00,
2013-07-17 12:39:00,63.9,59.3,30.34,North,0,0.0,0.0,85,0.38,,,0.39,WUHU216HW,2013-07-17 19:39:00,
2013-07-17 12:44:00,64.6,60.7,30.34,North,0,0.0,0.0,87,0.30,,,0.39,WUHU216HW,2013-07-17 19:44:00,
2013-07-17 12:49:00,65.5,61.8,30.34,North,0,0.0,0.0,88,0.15,,,0.39,WUHU216HW,2013-07-17 19:49:00,
2013-07-17 12:54:00,65.9,61.8,30.34,North,0,0.0,0.0,87,0.14,,,0.39,WUHU216HW,2013-07-17 19:54:00,
2013-07-17 12:59:00,65.9,61.8,30.33,North,0,0.0,0.0,87,0.14,,,0.39,WUHU216HW,2013-07-17 19:59:00,
2013-07-17 13:04:00,66.6,62.6,30.34,North,0,0.0,0.0,87,0.12,,,0.39,WUHU216HW,2013-07-17 20:04:00,
2013-07-17 13:09:00,67.0,62.7,30.34,North,0,0.0,0.0,86,0.01,,,0.39,WUHU216HW,2013-07-17 20:09:00,
2013-07-17 13:14:00,67.3,62.6,30.34,North,0,0.0,0.0,85,0.00,,,0.39,WUHU216HW,2013-07-17 20:14:00,
2013-07-17 13:19:00,67.7,63.0,30.33,North,0,0.0,0.0,85,0.00,,,0.39,WUHU216HW,2013-07-17 20:19:00,
2013-07-17 13:24:00,68.2,63.2,30.33,North,0,0.0,0.0,84,0.00,,,0.39,WUHU216HW,2013-07-17 20:24:00,
2013-07-17 13:29:00,68.2,62.9,30.33,North,0,0.0,0.0,83,0.00,,,0.39,WUHU216HW,2013-07-17 20:29:00,
2013-07-17 13:34:00,68.0,62.4,30.34,North,0,0.0,0.0,82,0.00,,,0.39,WUHU216HW,2013-07-17 20:34:00,
2013-07-17 13:39:00,68.0,62.4,30.33,North,0,0.0,0.0,82,0.00,,,0.39,WUHU216HW,2013-07-17 20:39:00,
2013-07-17 13:44:00,68.0,62.7,30.33,North,0,0.0,0.0,83,0.00,,,0.39,WUHU216HW,2013-07-17 20:44:00,
2013-07-17 13:49:00,68.4,63.1,30.33,North,0,0.0,0.0,83,0.00,,,0.39,WUHU216HW,2013-07-17 20:49:00,
2013-07-17 13:54:00,69.3,63.5,30.32,North,0,0.0,0.0,82,0.00,,,0.39,WUHU216HW,2013-07-17 20:54:00,
2013-07-17 13:59:00,69.8,62.7,30.33,North,0,0.0,0.0,78,0.00,,,0.39,WUHU216HW,2013-07-17 20:59:00,
2013-07-17 14:04:00,70.2,63.4,30.32,North,0,0.0,0.0,79,0.00,,,0.39,WUHU216HW,2013-07-17 21:04:00,
2013-07-17 14:09:00,70.7,62.7,30.32,North,0,0.0,0.0,76,0.00,,,0.39,WUHU216HW,2013-07-17 21:09:00,
2013-07-17 14:14:00,71.6,64.0,30.33,North,0,0.0,0.0,77,0.00,,,0.39,WUHU216HW,2013-07-17 21:14:00,
2013-07-17 14:19:00,72.0,64.4,30.32,North,0,0.0,0.0,77,0.00,,,0.39,WUHU216HW,2013-07-17 21:19:00,
2013-07-17 14:24:00,72.2,64.5,30.32,North,0,0.0,0.0,77,0.00,,,0.39,WUHU216HW,2013-07-17 21:24:00,
2013-07-17 14:29:00,72.4,64.4,30.32,North,0,0.0,0.0,76,0.00,,,0.39,WUHU216HW,2013-07-17 21:29:00,
2013-07-17 14:34:00,72.5,64.9,30.32,North,0,0.0,0.0,77,0.00,,,0.39,WUHU216HW,2013-07-17 21:34:00,
2013-07-17 14:39:00,73.1,65.1,30.32,North,0,0.0,0.0,76,0.00,,,0.39,WUHU216HW,2013-07-17 21:39:00,
2013-07-17 14:44:00,73.8,64.6,30.32,North,0,0.0,0.0,73,0.00,,,0.39,WUHU216HW,2013-07-17 21:44:00,
2013-07-17 14:49:00,73.8,63.9,30.32,North,0,0.0,0.0,71,0.00,,,0.39,WUHU216HW,2013-07-17 21:49:00,
2013-07-17 14:54:00,73.3,63.0,30.32,North,0,0.0,0.0,70,0.00,,,0.39,WUHU216HW,2013-07-17 21:54:00,
2013-07-17 14:59:00,72.9,63.0,30.33,North,0,0.0,0.0,71,0.00,,,0.39,WUHU216HW,2013-07-17 21:59:00,
2013-07-17 15:04:00,72.4,62.5,30.33,North,0,0.0,0.0,71,0.00,,,0.39,WUHU216HW,2013-07-17 22:04:00,
2013-07-17 15:09:00,72.0,62.1,30.33,North,0,0.0,0.0,71,0.00,,,0.39,WUHU216HW,2013-07-17 22:09:00,
2013-07-17 15:14:00,71.6,60.9,30.33,North,0,0.0,0.0,69,0.00,,,0.39,WUHU216HW,2013-07-17 22:14:00,
2013-07-17 15:19:00,71.8,61.6,30.33,North,0,0.0,0.0,70,0.00,,,0.39,WUHU216HW,2013-07-17 22:19:00,
2013-07-17 15:24:00,71.8,61.6,30.33,North,0,0.0,0.0,70,0.00,,,0.39,WUHU216HW,2013-07-17 22:24:00,
2013-07-17 15:29:00,72.0,62.5,30.33,North,0,0.0,0.0,72,0.00,,,0.39,WUHU216HW,2013-07-17 22:29:00,
2013-07-17 15:34:00,72.0,62.1,30.32,North,0,0.0,0.0,71,0.00,,,0.39,WUHU216HW,2013-07-17 22:34:00,
2013-07-17 15:39:00,72.0,61.7,30.32,North,0,0.0,0.0,70,0.00,,,0.39,WUHU216HW,2013-07-17 22:39:00,
2013-07-17 15:44:00,72.2,61.5,30.32,North,0,0.0,0.0,69,0.00,,,0.39,WUHU216HW,2013-07-17 22:44:00,
2013-07-17 15:49:00,72.4,60.8,30.32,North,0,0.0,0.0,67,0.00,,,0.39,WUHU216HW,2013-07-17 22:49:00,
2013-07-17 15:54:00,72.4,61.7,30.32,North,0,0.0,0.0,69,0.00,,,0.39,WUHU216HW,2013-07-17 22:54:00,
2013-07-17 15:59:00,72.4,61.7,30.31,North,0,0.0,0.0,69,0.00,,,0.39,WUHU216HW,2013-07-17 22:59:00,
2013-07-17 16:04:00,72.5,62.3,30.31,North,0,0.0,0.0,70,0.00,,,0.39,WUHU216HW,2013-07-17 23:04:00,
2013-07-17 16:09:00,72.5,60.5,30.31,North,0,0.0,0.0,66,0.00,,,0.39,WUHU216HW,2013-07-17 23:09:00,
2013-07-17 16:14:00,72.7,59.4,30.31,North,0,0.0,0.0,63,0.00,,,0.39,WUHU216HW,2013-07-17 23:14:00,
2013-07-17 16:19:00,73.1,60.1,30.31,North,0,0.0,0.0,64,0.00,,,0.39,WUHU216HW,2013-07-17 23:19:00,
2013-07-17 16:24:00,73.3,59.4,30.31,North,0,0.0,0.0,62,0.00,,,0.39,WUHU216HW,2013-07-17 23:24:00,
2013-07-17 16:29:00,73.6,58.9,30.30,North,0,0.0,0.0,60,0.00,,,0.39,WUHU216HW,2013-07-17 23:29:00,
2013-07-17 16:34:00,73.6,58.9,30.30,North,0,0.0,0.0,60,0.00,,,0.39,WUHU216HW,2013-07-17 23:34:00,
2013-07-17 16:39:00,73.6,58.3,30.30,North,0,0.0,0.0,59,0.00,,,0.39,WUHU216HW,2013-07-17 23:39:00,
2013-07-17 16:44:00,73.6,57.9,30.30,North,0,0.0,0.0,58,0.00,,,0.39,WUHU216HW,2013-07-17 23:44:00,
2013-07-17 16:49:00,73.6,58.9,30.29,North,0,0.0,0.0,60,0.00,,,0.39,WUHU216HW,2013-07-17 23:49:00,
2013-07-17 16:54:00,73.6,58.9,30.29,North,0,0.0,0.0,60,0.00,,,0.39,WUHU216HW,2013-07-17 23:54:00,
2013-07-17 16:59:00,73.4,59.6,30.29,North,0,0.0,0.0,62,0.00,,,0.39,WUHU216HW,2013-07-17 23:59:00,
2013-07-17 17:04:00,73.4,60.0,30.29,North,0,0.0,0.0,63,0.00,,,0.39,WUHU216HW,2013-07-18 00:04:00,
2013-07-17 17:09:00,73.4,59.6,30.29,North,0,0.0,0.0,62,0.00,,,0.39,WUHU216HW,2013-07-18 00:09:00,
2013-07-17 17:14:00,73.4,59.6,30.30,North,0,0.0,0.0,62,0.00,,,0.39,WUHU216HW,2013-07-18 00:14:00,
2013-07-17 17:19:00,73.3,59.9,30.29,North,0,0.0,0.0,63,0.00,,,0.39,WUHU216HW,2013-07-18 00:19:00,
2013-07-17 17:24:00,73.3,59.9,30.29,North,0,0.0,0.0,63,0.00,,,0.39,WUHU216HW,2013-07-18 00:24:00,
2013-07-17 17:29:00,73.3,59.9,30.29,North,0,0.0,0.0,63,0.00,,,0.39,WUHU216HW,2013-07-18 00:29:00,
2013-07-17 17:34:00,73.1,59.7,30.29,North,0,0.0,0.0,63,0.00,,,0.39,WUHU216HW,2013-07-18 00:34:00,
2013-07-17 17:39:00,73.1,59.7,30.30,North,0,0.0,0.0,63,0.00,,,0.39,WUHU216HW,2013-07-18 00:39:00,
2013-07-17 17:44:00,73.1,60.1,30.29,North,0,0.0,0.0,64,0.00,,,0.39,WUHU216HW,2013-07-18 00:44:00,
2013-07-17 17:49:00,72.7,59.8,30.29,North,0,0.0,0.0,64,0.00,,,0.39,WUHU216HW,2013-07-18 00:49:00,
2013-07-17 17:54:00,72.7,59.8,30.29,North,0,0.0,0.0,64,0.00,,,0.39,WUHU216HW,2013-07-18 00:54:00,
2013-07-17 17:59:00,72.4,59.5,30.29,North,0,0.0,0.0,64,0.00,,,0.39,WUHU216HW,2013-07-18 00:59:00,
2013-07-17 18:04:00,72.2,59.8,30.29,North,0,0.0,0.0,65,0.00,,,0.39,WUHU216HW,2013-07-18 01:04:00,
2013-07-17 18:09:00,72.0,60.0,30.29,North,0,0.0,0.0,66,0.00,,,0.39,WUHU216HW,2013-07-18 01:09:00,
2013-07-17 18:14:00,71.8,59.9,30.30,North,0,0.0,0.0,66,0.00,,,0.39,WUHU216HW,2013-07-18 01:14:00,
2013-07-17 18:19:00,71.8,59.9,30.30,North,0,0.0,0.0,66,0.00,,,0.39,WUHU216HW,2013-07-18 01:19:00,
2013-07-17 18:24:00,71.6,59.7,30.30,North,0,0.0,0.0,66,0.00,,,0.39,WUHU216HW,2013-07-18 01:24:00,
2013-07-17 18:29:00,71.5,59.5,30.30,North,0,0.0,0.0,66,0.00,,,0.39,WUHU216HW,2013-07-18 01:29:00,
2013-07-17 18:34:00,71.3,59.8,30.30,North,0,0.0,0.0,67,0.00,,,0.39,WUHU216HW,2013-07-18 01:34:00,
2013-07-17 18:41:00,71.3,59.8,30.30,North,0,0.0,0.0,67,0.00,,,0.39,WUHU216HW,2013-07-18 01:41:00,
2013-07-17 18:46:00,70.9,60.2,30.30,North,0,0.0,0.0,69,0.00,,,0.39,WUHU216HW,2013-07-18 01:46:00,
2013-07-17 18:51:00,70.7,60.0,30.30,North,0,0.0,0.0,69,0.00,,,0.39,WUHU216HW,2013-07-18 01:51:00,
2013-07-17 18:56:00,70.4,60.1,30.30,North,0,0.0,0.0,70,0.00,,,0.39,WUHU216HW,2013-07-18 01:56:00,
2013-07-17 19:01:00,70.2,60.3,30.30,North,0,0.0,0.0,71,0.00,,,0.39,WUHU216HW,2013-07-18 02:01:00,
2013-07-17 19:06:00,70.0,60.5,30.30,North,0,0.0,0.0,72,0.00,,,0.39,WUHU216HW,2013-07-18 02:06:00,
2013-07-17 19:11:00,69.7,60.2,30.30,North,0,0.0,0.0,72,0.00,,,0.39,WUHU216HW,2013-07-18 02:11:00,
2013-07-17 19:16:00,69.3,59.9,30.30,North,0,0.0,0.0,72,0.00,,,0.39,WUHU216HW,2013-07-18 02:16:00,
2013-07-17 19:21:00,69.1,60.0,30.30,North,0,0.0,0.0,73,0.00,,,0.39,WUHU216HW,2013-07-18 02:21:00,
2013-07-17 19:26:00,68.8,60.1,30.30,North,0,0.0,0.0,74,0.00,,,0.39,WUHU216HW,2013-07-18 02:26:00,
2013-07-17 19:31:00,68.4,59.8,30.31,North,0,0.0,0.0,74,0.00,,,0.39,WUHU216HW,2013-07-18 02:31:00,
2013-07-17 19:36:00,67.9,59.7,30.31,North,0,0.0,0.0,75,0.00,,,0.39,WUHU216HW,2013-07-18 02:36:00,
2013-07-17 19:41:00,67.7,59.9,30.30,North,0,0.0,0.0,76,0.00,,,0.39,WUHU216HW,2013-07-18 02:41:00,
2013-07-17 19:46:00,67.3,59.9,30.30,North,0,0.0,0.0,77,0.00,,,0.39,WUHU216HW,2013-07-18 02:46:00,
2013-07-17 19:51:00,67.0,59.5,30.30,North,0,0.0,0.0,77,0.00,,,0.39,WUHU216HW,2013-07-18 02:51:00,
2013-07-17 19:56:00,66.6,59.1,30.30,North,0,0.0,0.0,77,0.00,,,0.39,WUHU216HW,2013-07-18 02:56:00,
2013-07-17 20:01:00,66.4,59.4,30.31,North,0,0.0,0.0,78,0.00,,,0.39,WUHU216HW,2013-07-18 03:01:00,
2013-07-17 20:06:00,66.1,59.1,30.31,North,0,0.0,0.0,78,0.00,,,0.39,WUHU216HW,2013-07-18 03:06:00,
2013-07-17 20:11:00,65.9,59.2,30.31,North,0,0.0,0.0,79,0.00,,,0.39,WUHU216HW,2013-07-18 03:11:00,
2013-07-17 20:16:00,65.7,59.1,30.31,North,0,0.0,0.0,79,0.00,,,0.39,WUHU216HW,2013-07-18 03:16:00,
2013-07-17 20:21:00,65.7,59.1,30.31,North,0,0.0,0.0,79,0.00,,,0.39,WUHU216HW,2013-07-18 03:21:00,
2013-07-17 20:26:00,65.2,58.5,30.31,North,0,0.0,0.0,79,0.00,,,0.39,WUHU216HW,2013-07-18 03:26:00,
2013-07-17 20:31:00,64.8,58.2,30.31,North,0,0.0,0.0,79,0.00,,,0.39,WUHU216HW,2013-07-18 03:31:00,
2013-07-17 20:36:00,64.4,58.1,30.31,North,0,0.0,0.0,80,0.00,,,0.39,WUHU216HW,2013-07-18 03:36:00,
2013-07-17 20:41:00,64.3,58.0,30.31,North,0,0.0,0.0,80,0.00,,,0.39,WUHU216HW,2013-07-18 03:41:00,
2013-07-17 20:46:00,64.1,57.4,30.32,North,0,0.0,0.0,79,0.00,,,0.39,WUHU216HW,2013-07-18 03:46:00,
2013-07-17 20:51:00,63.7,57.1,30.32,North,0,0.0,0.0,79,0.00,,,0.39,WUHU216HW,2013-07-18 03:51:00,
2013-07-17 20:56:00,63.5,56.9,30.32,North,0,0.0,0.0,79,0.00,,,0.39,WUHU216HW,2013-07-18 03:56:00,
2013-07-17 21:01:00,63.4,57.1,30.32,North,0,0.0,0.0,80,0.00,,,0.39,WUHU216HW,2013-07-18 04:01:00,
2013-07-17 21:06:00,63.2,56.9,30.32,North,0,0.0,0.0,80,0.00,,,0.39,WUHU216HW,2013-07-18 04:06:00,
2013-07-17 21:11:00,63.2,57.3,30.32,North,0,0.0,0.0,81,0.00,,,0.39,WUHU216HW,2013-07-18 04:11:00,
2013-07-17 21:16:00,63.2,57.3,30.32,North,0,0.0,0.0,81,0.00,,,0.39,WUHU216HW,2013-07-18 04:16:00,
2013-07-17 21:21:00,63.2,57.3,30.32,North,0,0.0,0.0,81,0.00,,,0.39,WUHU216HW,2013-07-18 04:21:00,
2013-07-17 21:26:00,63.2,57.3,30.32,North,0,0.0,0.0,81,0.00,,,0.39,WUHU216HW,2013-07-18 04:26:00,
2013-07-17 21:31:00,63.2,57.3,30.32,North,0,0.0,0.0,81,0.00,,,0.39,WUHU216HW,2013-07-18 04:31:00,
2013-07-17 21:36:00,63.2,57.3,30.32,North,0,0.0,0.0,81,0.00,,,0.39,WUHU216HW,2013-07-18 04:36:00,
2013-07-17 21:41:00,63.0,57.1,30.32,North,0,0.0,0.0,81,0.00,,,0.39,WUHU216HW,2013-07-18 04:41:00,
2013-07-17 21:46:00,63.0,57.1,30.32,North,0,0.0,0.0,81,0.00,,,0.39,WUHU216HW,2013-07-18 04:46:00,
2013-07-17 21:51:00,62.8,57.3,30.32,North,0,0.0,0.0,82,0.00,,,0.39,WUHU216HW,2013-07-18 04:51:00,
2013-07-17 21:56:00,62.6,57.1,30.32,North,0,0.0,0.0,82,0.00,,,0.39,WUHU216HW,2013-07-18 04:56:00,
2013-07-17 22:01:00,62.3,56.7,30.32,North,0,0.0,0.0,82,0.00,,,0.39,WUHU216HW,2013-07-18 05:01:00,
2013-07-17 22:06:00,62.3,56.7,30.32,North,0,0.0,0.0,82,0.00,,,0.39,WUHU216HW,2013-07-18 05:06:00,
2013-07-17 22:11:00,62.3,57.1,30.32,North,0,0.0,0.0,83,0.00,,,0.39,WUHU216HW,2013-07-18 05:11:00,
2013-07-17 22:16:00,62.1,56.9,30.32,North,0,0.0,0.0,83,0.00,,,0.39,WUHU216HW,2013-07-18 05:16:00,
2013-07-17 22:21:00,61.9,56.7,30.32,North,0,0.0,0.0,83,0.00,,,0.39,WUHU216HW,2013-07-18 05:21:00,
2013-07-17 22:26:00,61.7,56.5,30.32,North,0,0.0,0.0,83,0.00,,,0.39,WUHU216HW,2013-07-18 05:26:00,
2013-07-17 22:31:00,61.6,56.3,30.32,North,0,0.0,0.0,83,0.00,,,0.39,WUHU216HW,2013-07-18 05:31:00,
2013-07-17 22:36:00,61.4,56.2,30.31,North,0,0.0,0.0,83,0.00,,,0.39,WUHU216HW,2013-07-18 05:36:00,
2013-07-17 22:41:00,61.4,56.2,30.32,North,0,0.0,0.0,83,0.00,,,0.39,WUHU216HW,2013-07-18 05:41:00,
2013-07-17 22:46:00,61.4,56.2,30.32,North,0,0.0,0.0,83,0.00,,,0.39,WUHU216HW,2013-07-18 05:46:00,
2013-07-17 22:51:00,61.2,56.1,30.32,North,0,0.0,0.0,83,0.00,,,0.39,WUHU216HW,2013-07-18 05:51:00,
2013-07-17 22:56:00,61.0,55.9,30.32,North,0,0.0,0.0,83,0.00,,,0.39,WUHU216HW,2013-07-18 05:56:00,
2013-07-17 23:01:00,60.8,55.7,30.32,North,0,0.0,0.0,83,0.00,,,0.39,WUHU216HW,2013-07-18 06:01:00,
2013-07-17 23:06:00,60.7,55.5,30.32,North,0,0.0,0.0,83,0.00,,,0.39,WUHU216HW,2013-07-18 06:06:00,
2013-07-17 23:11:00,60.5,55.4,30.32,North,0,0.0,0.0,83,0.00,,,0.39,WUHU216HW,2013-07-18 06:11:00,
2013-07-17 23:16:00,60.5,55.4,30.32,North,0,0.0,0.0,83,0.00,,,0.39,WUHU216HW,2013-07-18 06:16:00,
2013-07-17 23:21:00,60.1,55.3,30.32,North,0,0.0,0.0,84,0.00,,,0.39,WUHU216HW,2013-07-18 06:21:00,
2013-07-17 23:26:00,59.9,55.1,30.32,North,0,0.0,0.0,84,0.00,,,0.39,WUHU216HW,2013-07-18 06:26:00,
2013-07-17 23:31:00,59.8,54.9,30.32,North,0,0.0,0.0,84,0.00,,,0.39,WUHU216HW,2013-07-18 06:31:00,
2013-07-17 23:36:00,59.8,54.9,30.32,North,0,0.0,0.0,84,0.00,,,0.39,WUHU216HW,2013-07-18 06:36:00,
2013-07-17 23:41:00,59.6,54.7,30.32,North,0,0.0,0.0,84,0.00,,,0.39,WUHU216HW,2013-07-18 06:41:00,
2013-07-17 23:46:00,59.4,54.9,30.32,North,0,0.0,0.0,85,0.00,,,0.39,WUHU216HW,2013-07-18 06:46:00,
2013-07-17 23:51:00,59.4,54.9,30.32,North,0,0.0,0.0,85,0.00,,,0.39,WUHU216HW,2013-07-18 06:51:00,
2013-07-17 23:56:00,59.2,54.7,30.32,North,0,0.0,0.0,85,0.00,,,0.39,WUHU216HW,2013-07-18 06:56:00,